createdAt,value
2023-10-08T00:00:57.038Z,3.13
2023-10-08T00:03:28.704Z,3.53
2023-10-08T00:05:55.160Z,3.55
2023-10-08T00:08:22.515Z,3.03
2023-10-08T00:10:49.058Z,3.50
2023-10-08T00:13:18.887Z,3.10
2023-10-08T00:15:55.381Z,3.15
2023-10-08T00:18:23.781Z,3.42
2023-10-08T00:21:17.006Z,2.80
2023-10-08T00:23:49.972Z,3.15
2023-10-08T00:26:19.830Z,2.97
2023-10-08T00:28:48.619Z,3.13
2023-10-08T00:31:18.689Z,3.08
2023-10-08T00:33:45.704Z,3.30
2023-10-08T00:36:19.696Z,2.60
2023-10-08T00:38:48.734Z,2.85
2023-10-08T00:41:18.131Z,3.45
2023-10-08T00:43:49.554Z,3.13
2023-10-08T00:46:24.959Z,3.22
2023-10-08T00:49:00.248Z,2.97
2023-10-08T00:51:32.157Z,3.75
2023-10-08T00:54:10.145Z,3.65
2023-10-08T00:56:56.097Z,3.30
2023-10-08T00:59:23.178Z,3.17
2023-10-08T01:01:54.551Z,3.13
2023-10-08T01:04:27.392Z,3.08
2023-10-08T01:07:13.560Z,3.33
2023-10-08T01:09:51.828Z,3.30
2023-10-08T01:12:31.395Z,3.60
2023-10-08T01:15:36.421Z,3.30
2023-10-08T01:18:16.579Z,3.10
2023-10-08T01:20:49.274Z,3.35
2023-10-08T01:23:21.849Z,3.22
2023-10-08T01:25:58.579Z,3.65
2023-10-08T01:28:29.795Z,3.00
2023-10-08T01:31:01.522Z,3.25
2023-10-08T01:33:30.866Z,3.25
2023-10-08T01:36:04.958Z,2.83
2023-10-08T01:38:33.463Z,3.63
2023-10-08T01:41:19.292Z,3.58
2023-10-08T01:43:51.952Z,3.75
2023-10-08T01:46:18.695Z,3.15
2023-10-08T01:48:46.259Z,3.67
2023-10-08T01:51:23.164Z,3.30
2023-10-08T01:53:49.752Z,3.38
2023-10-08T01:56:16.263Z,3.55
2023-10-08T01:58:42.680Z,3.33
2023-10-08T02:01:13.066Z,3.50
2023-10-08T02:03:40.136Z,3.13
2023-10-08T02:06:07.137Z,3.55
2023-10-08T02:08:33.602Z,3.75
2023-10-08T02:11:00.443Z,3.40
2023-10-08T02:13:27.475Z,3.60
2023-10-08T02:15:54.002Z,3.15
2023-10-08T02:18:21.446Z,3.22
2023-10-08T02:23:15.770Z,3.47
2023-10-08T02:25:42.490Z,3.08
2023-10-08T02:28:21.303Z,3.30
2023-10-08T02:30:47.760Z,2.95
2023-10-08T02:33:17.259Z,3.28
2023-10-08T02:35:46.047Z,3.58
2023-10-08T02:38:25.418Z,3.03
2023-10-08T02:40:55.439Z,2.97
2023-10-08T02:43:23.412Z,3.40
2023-10-08T02:45:51.427Z,3.13
2023-10-08T02:48:18.954Z,3.22
2023-10-08T02:53:13.387Z,3.40
2023-10-08T02:55:45.044Z,3.40
2023-10-08T02:58:15.892Z,3.63
2023-10-08T03:00:50.263Z,3.38
2023-10-08T03:03:20.607Z,3.42
2023-10-08T03:05:49.155Z,3.28
2023-10-08T03:08:21.576Z,3.10
2023-10-08T03:10:56.369Z,3.13
2023-10-08T03:13:27.729Z,3.50
2023-10-08T03:16:03.073Z,3.20
2023-10-08T03:18:37.430Z,3.08
2023-10-08T03:21:05.966Z,3.30
2023-10-08T03:23:37.022Z,3.40
2023-10-08T03:26:11.691Z,3.42
2023-10-08T03:28:38.840Z,3.15
2023-10-08T03:31:05.877Z,3.50
2023-10-08T03:33:38.270Z,3.05
2023-10-08T03:36:10.857Z,3.40
2023-10-08T03:38:45.495Z,3.35
2023-10-08T03:41:17.763Z,3.33
2023-10-08T03:43:53.807Z,3.50
2023-10-08T03:46:23.533Z,3.83
2023-10-08T03:48:52.548Z,3.20
2023-10-08T03:51:22.029Z,3.85
2023-10-08T03:54:11.451Z,3.67
2023-10-08T03:56:38.315Z,3.47
2023-10-08T03:59:13.794Z,3.63
2023-10-08T04:01:41.623Z,3.47
2023-10-08T04:06:39.909Z,3.35
2023-10-08T04:09:09.931Z,3.33
2023-10-08T04:11:43.104Z,4.05
2023-10-08T04:14:09.777Z,3.47
2023-10-08T04:16:38.637Z,3.95
2023-10-08T04:19:05.586Z,3.72
2023-10-08T04:21:35.047Z,3.60
2023-10-08T04:24:04.716Z,3.28
2023-10-08T04:26:32.656Z,3.72
2023-10-08T04:29:02.767Z,3.40
2023-10-08T04:31:37.338Z,3.85
2023-10-08T04:34:10.684Z,3.33
2023-10-08T04:36:39.380Z,4.32
2023-10-08T04:39:14.345Z,3.80
2023-10-08T04:41:43.730Z,3.97
2023-10-08T04:44:15.583Z,4.15
2023-10-08T04:46:48.736Z,3.47
2023-10-08T04:49:29.029Z,3.90
2023-10-08T04:54:52.689Z,3.83
2023-10-08T04:57:23.350Z,3.55
2023-10-08T04:59:51.492Z,3.80
2023-10-08T05:02:21.922Z,3.47
2023-10-08T05:04:52.497Z,4.15
2023-10-08T05:07:22.948Z,3.47
2023-10-08T05:10:04.572Z,4.10
2023-10-08T05:12:33.845Z,3.60
2023-10-08T05:15:15.677Z,4.32
2023-10-08T05:18:08.870Z,3.45
2023-10-08T05:20:59.950Z,4.68
2023-10-08T05:23:29.163Z,3.63
2023-10-08T05:26:06.510Z,3.92
2023-10-08T05:29:01.851Z,4.72
2023-10-08T05:31:54.099Z,3.90
2023-10-08T05:34:33.879Z,3.60
2023-10-08T05:37:00.446Z,3.40
2023-10-08T05:39:43.624Z,4.20
2023-10-08T05:42:29.036Z,4.03
2023-10-08T05:45:27.626Z,4.00
2023-10-08T05:48:14.227Z,3.35
2023-10-08T05:50:43.800Z,4.00
2023-10-08T05:53:31.068Z,4.03
2023-10-08T05:56:17.523Z,4.05
2023-10-08T05:59:01.033Z,4.20
2023-10-08T06:01:41.398Z,4.07
2023-10-08T06:04:26.660Z,3.85
2023-10-08T06:07:13.120Z,3.83
2023-10-08T06:09:41.162Z,4.03
2023-10-08T06:12:20.740Z,4.55
2023-10-08T06:15:05.891Z,4.03
2023-10-08T06:17:46.193Z,3.58
2023-10-08T06:20:17.605Z,4.03
2023-10-08T06:22:44.792Z,4.32
2023-10-08T06:25:18.638Z,4.35
2023-10-08T06:27:48.218Z,4.18
2023-10-08T06:30:18.118Z,4.10
2023-10-08T06:32:46.246Z,3.85
2023-10-08T06:35:18.562Z,3.97
2023-10-08T06:37:46.373Z,4.22
2023-10-08T06:40:31.640Z,4.30
2023-10-08T06:42:58.232Z,4.10
2023-10-08T06:45:29.049Z,3.90
2023-10-08T06:47:58.264Z,4.07
2023-10-08T06:50:26.858Z,4.20
2023-10-08T06:52:55.370Z,3.78
2023-10-08T06:55:25.819Z,3.92
2023-10-08T06:57:52.241Z,3.63
2023-10-08T07:00:38.675Z,4.50
2023-10-08T07:03:07.226Z,4.38
2023-10-08T07:05:37.645Z,3.85
2023-10-08T07:08:07.596Z,4.32
2023-10-08T07:10:37.339Z,3.75
2023-10-08T07:13:04.097Z,3.80
2023-10-08T07:15:31.200Z,3.65
2023-10-08T07:17:58.277Z,3.85
2023-10-08T07:20:25.385Z,3.80
2023-10-08T07:22:55.168Z,3.75
2023-10-08T07:25:22.534Z,3.95
2023-10-08T07:27:49.087Z,4.47
2023-10-08T07:30:27.595Z,3.63
2023-10-08T07:32:59.217Z,3.58
2023-10-08T07:35:30.684Z,3.90
2023-10-08T07:37:57.079Z,3.70
2023-10-08T07:40:28.801Z,3.63
2023-10-08T07:42:55.225Z,3.67
2023-10-08T07:45:22.718Z,4.13
2023-10-08T07:50:17.100Z,4.13
2023-10-08T07:52:45.512Z,3.70
2023-10-08T07:55:18.349Z,3.97
2023-10-08T07:57:44.724Z,3.78
2023-10-08T08:00:24.353Z,4.05
2023-10-08T08:02:51.331Z,4.00
2023-10-08T08:05:18.183Z,3.85
2023-10-08T08:07:46.831Z,4.00
2023-10-08T08:10:13.479Z,3.47
2023-10-08T08:12:39.875Z,4.00
2023-10-08T08:15:15.950Z,3.97
2023-10-08T08:17:48.996Z,3.92
2023-10-08T08:20:19.025Z,4.07
2023-10-08T08:22:55.955Z,3.47
2023-10-08T08:25:35.571Z,3.95
2023-10-08T08:28:02.287Z,4.00
2023-10-08T08:30:28.698Z,3.55
2023-10-08T08:32:57.258Z,4.28
2023-10-08T08:35:24.981Z,3.25
2023-10-08T08:37:51.538Z,3.40
2023-10-08T08:40:19.887Z,4.32
2023-10-08T08:42:48.285Z,4.40
2023-10-08T08:45:21.322Z,4.45
2023-10-08T08:47:48.419Z,4.22
2023-10-08T08:50:15.209Z,4.63
2023-10-08T08:52:41.861Z,3.80
2023-10-08T08:55:15.834Z,4.22
2023-10-08T08:57:47.163Z,4.00
2023-10-08T09:00:15.256Z,3.95
2023-10-08T09:02:42.338Z,3.70
2023-10-08T09:05:26.016Z,3.80
2023-10-08T09:08:04.030Z,3.95
2023-10-08T09:10:33.475Z,3.33
2023-10-08T09:13:00.413Z,3.50
2023-10-08T09:15:27.656Z,3.92
2023-10-08T09:17:56.111Z,3.53
2023-10-08T09:20:23.390Z,3.83
2023-10-08T09:23:08.158Z,3.72
2023-10-08T09:25:35.441Z,3.60
2023-10-08T09:28:01.922Z,3.78
2023-10-08T09:30:34.403Z,3.67
2023-10-08T09:33:02.025Z,3.78
2023-10-08T09:35:28.967Z,3.97
2023-10-08T09:37:55.656Z,3.70
2023-10-08T09:40:22.653Z,3.60
2023-10-08T09:42:49.464Z,3.10
2023-10-08T09:45:15.901Z,3.65
2023-10-08T09:47:44.950Z,3.67
2023-10-08T09:50:13.650Z,3.78
2023-10-08T09:52:46.668Z,3.65
2023-10-08T09:55:13.123Z,3.83
2023-10-08T09:57:39.553Z,3.30
2023-10-08T10:00:12.049Z,3.70
2023-10-08T10:02:38.835Z,3.75
2023-10-08T10:05:07.110Z,3.45
2023-10-08T10:07:33.526Z,3.60
2023-10-08T10:10:00.115Z,3.45
2023-10-08T10:12:27.743Z,3.45
2023-10-08T10:14:58.604Z,3.40
2023-10-08T10:17:44.087Z,3.50
2023-10-08T10:20:14.837Z,3.45
2023-10-08T10:22:44.549Z,3.85
2023-10-08T10:25:18.309Z,3.70
2023-10-08T10:27:57.009Z,3.78
2023-10-08T10:30:24.767Z,4.53
2023-10-08T10:32:55.415Z,3.55
2023-10-08T10:35:21.980Z,4.03
2023-10-08T10:37:55.620Z,3.83
2023-10-08T10:40:41.478Z,3.30
2023-10-08T10:43:10.333Z,4.22
2023-10-08T10:45:37.302Z,3.60
2023-10-08T10:48:34.028Z,3.20
2023-10-08T10:51:06.749Z,3.63
2023-10-08T10:53:57.830Z,3.45
2023-10-08T10:56:31.546Z,3.25
2023-10-08T10:59:06.958Z,3.58
2023-10-08T11:01:47.599Z,3.63
2023-10-08T11:04:17.202Z,3.47
2023-10-08T11:06:45.793Z,3.33
2023-10-08T11:09:17.108Z,3.17
2023-10-08T11:11:52.484Z,3.53
2023-10-08T11:14:19.962Z,3.17
2023-10-08T11:16:48.885Z,3.38
2023-10-08T11:19:20.633Z,3.45
2023-10-08T11:21:57.391Z,3.72
2023-10-08T11:24:34.475Z,3.45
2023-10-08T11:27:16.532Z,3.55
2023-10-08T11:29:44.835Z,3.60
2023-10-08T11:32:13.685Z,3.63
2023-10-08T11:34:40.397Z,3.67
2023-10-08T11:37:20.798Z,3.67
2023-10-08T11:39:47.991Z,3.85
2023-10-08T11:45:00.465Z,3.97
2023-10-08T11:47:32.364Z,3.47
2023-10-08T11:50:11.301Z,3.80
2023-10-08T11:52:44.829Z,4.05
2023-10-08T11:55:19.436Z,3.60
2023-10-08T11:57:50.195Z,3.22
2023-10-08T12:00:30.971Z,3.83
2023-10-08T12:02:59.332Z,4.03
2023-10-08T12:05:26.402Z,4.00
2023-10-08T12:10:24.963Z,3.75
2023-10-08T12:13:00.932Z,4.50
2023-10-08T12:15:39.624Z,3.97
2023-10-08T12:18:10.024Z,3.25
2023-10-08T12:20:40.566Z,3.45
2023-10-08T12:23:07.061Z,3.55
2023-10-08T12:25:33.777Z,3.50
2023-10-08T12:28:04.982Z,3.92
2023-10-08T12:30:32.559Z,3.58
2023-10-08T12:33:01.048Z,3.50
2023-10-08T12:35:30.522Z,4.00
2023-10-08T12:37:58.000Z,3.78
2023-10-08T12:40:24.590Z,4.05
2023-10-08T12:42:53.994Z,3.70
2023-10-08T12:45:23.184Z,3.95
2023-10-08T12:47:51.184Z,4.43
2023-10-08T12:50:24.211Z,3.88
2023-10-08T12:52:56.545Z,3.45
2023-10-08T12:55:26.546Z,3.08
2023-10-08T12:58:06.718Z,4.13
2023-10-08T13:00:33.448Z,4.43
2023-10-08T13:03:02.420Z,4.03
2023-10-08T13:05:29.058Z,3.92
2023-10-08T13:07:56.567Z,4.00
2023-10-08T13:10:24.127Z,3.70
2023-10-08T13:12:51.034Z,3.67
2023-10-08T13:15:17.442Z,3.70
2023-10-08T13:17:44.017Z,3.60
2023-10-08T13:20:13.950Z,3.72
2023-10-08T13:22:41.058Z,3.92
2023-10-08T13:27:34.165Z,4.03
2023-10-08T13:30:05.591Z,3.72
2023-10-08T13:32:32.109Z,3.67
2023-10-08T13:34:59.706Z,3.95
2023-10-08T13:37:26.163Z,4.13
2023-10-08T13:39:53.961Z,3.67
2023-10-08T13:42:21.862Z,3.83
2023-10-08T13:44:49.426Z,3.70
2023-10-08T13:47:16.549Z,4.15
2023-10-08T13:52:11.588Z,3.83
2023-10-08T13:54:42.759Z,3.63
2023-10-08T13:57:10.051Z,3.75
2023-10-08T13:59:39.085Z,4.13
2023-10-08T14:02:15.412Z,4.07
2023-10-08T14:04:44.646Z,3.88
2023-10-08T14:07:12.947Z,3.45
2023-10-08T14:09:39.410Z,3.55
2023-10-08T14:12:08.272Z,3.58
2023-10-08T14:14:35.516Z,4.25
2023-10-08T14:17:08.902Z,4.10
2023-10-08T14:19:47.364Z,4.13
2023-10-08T14:22:17.590Z,3.67
2023-10-08T14:24:46.499Z,3.60
2023-10-08T14:27:16.327Z,3.92
2023-10-08T14:29:48.603Z,4.30
2023-10-08T14:32:16.291Z,4.03
2023-10-08T14:34:49.256Z,3.78
2023-10-08T14:37:34.471Z,5.50
2023-10-08T14:40:19.713Z,3.90
2023-10-08T14:43:00.550Z,3.97
2023-10-08T14:45:32.503Z,4.15
2023-10-08T14:47:59.732Z,4.03
2023-10-08T14:50:34.019Z,3.90
2023-10-08T14:53:06.374Z,4.20
2023-10-08T14:55:36.709Z,3.63
2023-10-08T14:58:09.176Z,3.53
2023-10-08T15:00:39.249Z,3.67
2023-10-08T15:03:05.999Z,3.80
2023-10-08T15:05:33.003Z,3.85
2023-10-08T15:07:59.584Z,3.95
2023-10-08T15:10:26.663Z,3.97
2023-10-08T15:15:20.457Z,3.92
2023-10-08T15:17:47.859Z,3.83
2023-10-08T15:20:17.544Z,4.18
2023-10-08T15:22:44.698Z,4.35
2023-10-08T15:27:42.268Z,4.30
2023-10-08T15:30:12.919Z,4.80
2023-10-08T15:32:44.896Z,4.10
2023-10-08T15:35:13.301Z,4.03
2023-10-08T15:37:40.101Z,3.83
2023-10-08T15:40:07.445Z,3.83
2023-10-08T15:42:37.933Z,4.80
2023-10-08T15:45:06.128Z,4.45
2023-10-08T15:47:33.014Z,3.90
2023-10-08T15:49:59.884Z,3.13
2023-10-08T15:52:26.753Z,3.42
2023-10-08T15:54:53.153Z,2.97
2023-10-08T15:57:19.769Z,3.72
2023-10-08T15:59:46.185Z,3.03
2023-10-08T16:02:13.294Z,3.53
2023-10-08T16:04:39.728Z,3.08
2023-10-08T16:07:06.195Z,3.35
2023-10-08T16:09:32.859Z,2.97
2023-10-08T16:12:00.390Z,3.13
2023-10-08T16:14:26.916Z,2.85
2023-10-08T16:16:53.386Z,2.72
2023-10-08T16:19:19.781Z,2.80
2023-10-08T16:21:46.162Z,2.85
2023-10-08T16:24:13.740Z,2.70
2023-10-08T16:26:43.583Z,2.88
2023-10-08T16:29:12.050Z,3.20
2023-10-08T16:31:45.934Z,2.75
2023-10-08T16:34:18.733Z,3.20
2023-10-08T16:36:46.321Z,3.00
2023-10-08T16:39:19.383Z,2.40
2023-10-08T16:41:46.543Z,2.40
2023-10-08T16:44:13.302Z,2.40
2023-10-08T16:46:40.797Z,2.50
2023-10-08T16:49:07.218Z,3.10
2023-10-08T16:51:34.362Z,2.90
2023-10-08T16:54:01.304Z,3.70
2023-10-08T16:56:27.800Z,3.42
2023-10-08T16:58:54.231Z,3.45
2023-10-08T17:01:20.761Z,3.05
2023-10-08T17:03:47.270Z,2.90
2023-10-08T17:06:13.786Z,3.00
2023-10-08T17:08:42.147Z,2.97
2023-10-08T17:11:11.427Z,2.38
2023-10-08T17:13:39.415Z,3.05
2023-10-08T17:16:08.380Z,3.03
2023-10-08T17:18:35.870Z,3.03
2023-10-08T17:21:02.359Z,3.33
2023-10-08T17:23:29.067Z,3.03
2023-10-08T17:25:58.849Z,2.70
2023-10-08T17:28:25.910Z,3.20
2023-10-08T17:30:52.478Z,3.22
2023-10-08T17:33:19.013Z,3.60
2023-10-08T17:35:45.792Z,3.50
2023-10-08T17:38:13.163Z,3.80
2023-10-08T17:40:42.454Z,4.40
2023-10-08T17:43:09.300Z,3.80
2023-10-08T17:45:36.661Z,3.95
2023-10-08T17:48:06.963Z,3.65
2023-10-08T17:50:37.348Z,3.63
2023-10-08T17:53:04.864Z,3.85
2023-10-08T17:55:31.269Z,3.25
2023-10-08T17:57:59.807Z,3.33
2023-10-08T18:00:28.704Z,3.47
2023-10-08T18:02:55.458Z,3.75
2023-10-08T18:05:27.727Z,3.03
2023-10-08T18:07:55.362Z,3.72
2023-10-08T18:10:24.528Z,2.70
2023-10-08T18:12:52.132Z,3.90
2023-10-08T18:15:24.148Z,2.78
2023-10-08T18:17:55.302Z,2.80
2023-10-08T18:20:30.043Z,2.90
2023-10-08T18:22:56.464Z,2.80
2023-10-08T18:25:23.546Z,3.40
2023-10-08T18:27:50.277Z,2.63
2023-10-08T18:30:16.908Z,3.28
2023-10-08T18:32:44.165Z,3.03
2023-10-08T18:35:13.721Z,2.88
2023-10-08T18:37:40.205Z,3.10
2023-10-08T18:40:26.831Z,3.13
2023-10-08T18:42:54.192Z,3.30
2023-10-08T18:45:20.884Z,3.30
2023-10-08T18:47:47.537Z,3.55
2023-10-08T18:50:16.205Z,3.28
2023-10-08T18:52:43.501Z,3.13
2023-10-08T18:55:10.189Z,3.30
2023-10-08T18:57:37.155Z,3.80
2023-10-08T19:00:10.455Z,3.05
2023-10-08T19:02:38.311Z,3.70
2023-10-08T19:05:06.886Z,3.67
2023-10-08T19:07:34.603Z,3.80
2023-10-08T19:10:02.544Z,3.30
2023-10-08T19:12:31.718Z,3.10
2023-10-08T19:15:00.394Z,3.35
2023-10-08T19:17:27.756Z,3.67
2023-10-08T19:19:54.274Z,3.17
2023-10-08T19:22:21.221Z,3.60
2023-10-08T19:24:48.091Z,3.75
2023-10-08T19:27:15.914Z,4.05
2023-10-08T19:29:43.487Z,4.32
2023-10-08T19:32:12.224Z,3.75
2023-10-08T19:34:40.143Z,3.55
2023-10-08T19:37:07.372Z,3.22
2023-10-08T19:39:33.929Z,3.53
2023-10-08T19:42:00.375Z,3.50
2023-10-08T19:44:26.948Z,3.30
2023-10-08T19:46:53.412Z,3.35
2023-10-08T19:49:20.106Z,3.72
2023-10-08T19:51:46.802Z,3.72
2023-10-08T19:54:13.234Z,3.65
2023-10-08T19:56:39.829Z,3.90
2023-10-08T19:59:07.499Z,4.03
2023-10-08T20:01:34.354Z,3.95
2023-10-08T20:04:01.160Z,4.00
2023-10-08T20:06:27.801Z,4.03
2023-10-08T20:08:55.022Z,4.47
2023-10-08T20:11:22.316Z,4.40
2023-10-08T20:13:49.845Z,4.68
2023-10-08T20:18:43.219Z,4.63
2023-10-08T20:21:10.128Z,5.15
2023-10-08T20:23:39.948Z,4.57
2023-10-08T20:26:15.718Z,4.78
2023-10-08T20:28:42.974Z,4.28
2023-10-08T20:31:13.583Z,4.22
2023-10-08T20:33:41.399Z,4.75
2023-10-08T20:36:08.594Z,5.18
2023-10-08T20:38:35.017Z,4.57
2023-10-08T20:41:01.893Z,4.68
2023-10-08T20:43:29.717Z,5.38
2023-10-08T20:45:56.856Z,5.32
2023-10-08T20:48:25.016Z,5.50
2023-10-08T20:50:51.649Z,5.18
2023-10-08T20:53:18.035Z,5.43
2023-10-08T20:55:46.511Z,4.93
2023-10-08T20:58:16.159Z,5.00
2023-10-08T21:00:45.571Z,5.85
2023-10-08T21:03:16.951Z,5.35
2023-10-08T21:05:47.919Z,5.47
2023-10-08T21:08:14.700Z,5.80
2023-10-08T21:13:13.886Z,5.35
2023-10-08T21:15:41.688Z,5.20
2023-10-08T21:18:11.008Z,5.03
2023-10-08T21:20:40.348Z,5.53
2023-10-08T21:23:06.897Z,5.10
2023-10-08T21:25:33.530Z,5.13
2023-10-08T21:28:01.695Z,5.25
2023-10-08T21:30:28.661Z,5.10
2023-10-08T21:32:56.610Z,5.45
2023-10-08T21:35:23.693Z,5.45
2023-10-08T21:37:51.406Z,5.47
2023-10-08T21:40:19.145Z,5.25
2023-10-08T21:42:50.824Z,5.47
2023-10-08T21:45:20.598Z,5.07
2023-10-08T21:47:48.102Z,5.47
2023-10-08T21:50:17.694Z,4.82
2023-10-08T21:52:46.271Z,4.55
2023-10-08T21:55:13.479Z,4.60
2023-10-08T21:57:41.002Z,5.40
2023-10-08T22:00:35.703Z,4.70
2023-10-08T22:03:03.008Z,4.50
2023-10-08T22:05:31.374Z,4.65
2023-10-08T22:07:59.226Z,4.63
2023-10-08T22:10:27.686Z,4.25
2023-10-08T22:12:54.755Z,5.20
2023-10-08T22:15:28.920Z,5.20
2023-10-08T22:17:57.420Z,5.03
2023-10-08T22:20:39.593Z,5.35
2023-10-08T22:23:15.780Z,5.22
2023-10-08T22:25:47.532Z,4.53
2023-10-08T22:28:18.975Z,5.30
2023-10-08T22:30:52.795Z,4.28
2023-10-08T22:33:26.346Z,4.65
2023-10-08T22:35:58.571Z,4.82
2023-10-08T22:38:27.927Z,5.15
2023-10-08T22:40:56.884Z,4.75
2023-10-08T22:43:24.077Z,4.72
2023-10-08T22:45:51.947Z,4.13
2023-10-08T22:48:36.794Z,5.15
2023-10-08T22:51:04.412Z,4.90
2023-10-08T22:53:31.819Z,5.05
2023-10-08T22:56:01.246Z,5.03
2023-10-08T22:58:30.199Z,4.55
2023-10-08T23:00:58.272Z,4.88
2023-10-08T23:03:26.522Z,4.88
2023-10-08T23:05:53.449Z,5.32
2023-10-08T23:08:23.936Z,5.95
2023-10-08T23:10:55.086Z,4.57
2023-10-08T23:13:22.864Z,4.28
2023-10-08T23:15:54.982Z,4.78
2023-10-08T23:18:24.838Z,4.40
2023-10-08T23:20:51.600Z,4.72
2023-10-08T23:23:21.173Z,4.30
2023-10-08T23:25:48.235Z,4.53
2023-10-08T23:28:14.623Z,4.60
2023-10-08T23:30:41.092Z,3.78
2023-10-08T23:33:09.365Z,4.45
2023-10-08T23:35:41.431Z,4.93
2023-10-08T23:38:09.566Z,4.03
2023-10-08T23:40:45.544Z,4.95
2023-10-08T23:43:18.831Z,4.10
2023-10-08T23:45:56.164Z,4.65
2023-10-08T23:48:23.776Z,4.35
2023-10-08T23:53:30.609Z,4.15
2023-10-08T23:56:05.770Z,4.25
2023-10-08T23:58:38.646Z,3.90
